createdAt,value
2023-02-09T00:00:26.487Z,1030.89
2023-02-09T00:01:26.487Z,1030.89
2023-02-09T00:02:26.514Z,1030.88
2023-02-09T00:03:26.507Z,1030.83
2023-02-09T00:04:26.500Z,1030.84
2023-02-09T00:05:26.501Z,1030.81
2023-02-09T00:06:26.532Z,1030.82
2023-02-09T00:07:26.510Z,1030.77
2023-02-09T00:08:26.512Z,1030.74
2023-02-09T00:09:26.515Z,1030.78
2023-02-09T00:10:26.520Z,1030.74
2023-02-09T00:11:26.520Z,1030.70
2023-02-09T00:12:26.537Z,1030.75
2023-02-09T00:13:26.533Z,1030.69
2023-02-09T00:14:26.536Z,1030.68
2023-02-09T00:15:26.542Z,1030.64
2023-02-09T00:16:26.606Z,1030.65
2023-02-09T00:17:26.549Z,1030.65
2023-02-09T00:18:26.556Z,1030.67
2023-02-09T00:19:26.554Z,1030.63
2023-02-09T00:20:26.557Z,1030.63
2023-02-09T00:21:26.564Z,1030.66
2023-02-09T00:22:26.572Z,1030.67
2023-02-09T00:23:26.567Z,1030.67
2023-02-09T00:24:26.582Z,1030.65
2023-02-09T00:25:26.581Z,1030.66
2023-02-09T00:26:26.587Z,1030.66
2023-02-09T00:27:26.587Z,1030.64
2023-02-09T00:28:26.648Z,1030.60
2023-02-09T00:29:26.594Z,1030.59
2023-02-09T00:30:26.595Z,1030.56
2023-02-09T00:31:26.647Z,1030.55
2023-02-09T00:32:26.605Z,1030.52
2023-02-09T00:33:26.612Z,1030.50
2023-02-09T00:34:26.606Z,1030.47
2023-02-09T00:35:26.614Z,1030.51
2023-02-09T00:36:26.634Z,1030.48
2023-02-09T00:37:26.618Z,1030.50
2023-02-09T00:38:26.625Z,1030.43
2023-02-09T00:39:26.624Z,1030.43
2023-02-09T00:40:26.628Z,1030.40
2023-02-09T00:41:26.633Z,1030.39
2023-02-09T00:42:26.635Z,1030.43
2023-02-09T00:43:26.640Z,1030.42
2023-02-09T00:44:26.638Z,1030.42
2023-02-09T00:45:26.648Z,1030.36
2023-02-09T00:46:26.651Z,1030.43
2023-02-09T00:47:26.655Z,1030.45
2023-02-09T00:48:26.655Z,1030.43
2023-02-09T00:49:26.661Z,1030.40
2023-02-09T00:50:26.664Z,1030.41
2023-02-09T00:51:26.668Z,1030.43
2023-02-09T00:52:26.673Z,1030.45
2023-02-09T00:53:26.674Z,1030.47
2023-02-09T00:54:26.682Z,1030.42
2023-02-09T00:55:26.686Z,1030.40
2023-02-09T00:56:26.689Z,1030.42
2023-02-09T00:57:26.687Z,1030.39
2023-02-09T00:58:26.690Z,1030.35
2023-02-09T00:59:26.694Z,1030.38
2023-02-09T01:00:26.694Z,1030.35
2023-02-09T01:01:26.770Z,1030.35
2023-02-09T01:02:26.703Z,1030.32
2023-02-09T01:03:26.706Z,1030.32
2023-02-09T01:04:26.771Z,1030.29
2023-02-09T01:05:26.712Z,1030.30
2023-02-09T01:06:26.714Z,1030.27
2023-02-09T01:07:26.721Z,1030.29
2023-02-09T01:08:26.722Z,1030.32
2023-02-09T01:09:26.725Z,1030.27
2023-02-09T01:10:26.734Z,1030.29
2023-02-09T01:11:26.730Z,1030.27
2023-02-09T01:12:26.735Z,1030.27
2023-02-09T01:13:26.736Z,1030.24
2023-02-09T01:14:26.745Z,1030.20
2023-02-09T01:15:26.760Z,1030.23
2023-02-09T01:16:26.820Z,1030.23
2023-02-09T01:17:26.751Z,1030.21
2023-02-09T01:18:26.754Z,1030.20
2023-02-09T01:19:26.788Z,1030.25
2023-02-09T01:20:26.758Z,1030.23
2023-02-09T01:21:26.762Z,1030.23
2023-02-09T01:22:26.772Z,1030.20
2023-02-09T01:23:26.768Z,1030.20
2023-02-09T01:24:26.775Z,1030.25
2023-02-09T01:25:26.779Z,1030.25
2023-02-09T01:26:26.788Z,1030.22
2023-02-09T01:27:26.782Z,1030.19
2023-02-09T01:28:26.868Z,1030.14
2023-02-09T01:29:26.789Z,1030.12
2023-02-09T01:30:26.827Z,1030.14
2023-02-09T01:31:26.882Z,1030.12
2023-02-09T01:32:26.798Z,1030.14
2023-02-09T01:33:26.809Z,1030.07
2023-02-09T01:34:26.810Z,1030.04
2023-02-09T01:35:26.809Z,1030.03
2023-02-09T01:36:26.811Z,1030.02
2023-02-09T01:37:26.813Z,1030.02
2023-02-09T01:38:26.818Z,1030.00
2023-02-09T01:39:26.821Z,1029.98
2023-02-09T01:40:26.827Z,1029.97
2023-02-09T01:41:26.837Z,1030.00
2023-02-09T01:42:26.841Z,1029.97
2023-02-09T01:43:26.845Z,1029.93
2023-02-09T01:44:26.841Z,1029.92
2023-02-09T01:45:26.852Z,1029.87
2023-02-09T01:46:26.932Z,1029.88
2023-02-09T01:47:26.847Z,1029.81
2023-02-09T01:48:26.852Z,1029.82
2023-02-09T01:49:26.853Z,1029.74
2023-02-09T01:50:26.859Z,1029.78
2023-02-09T01:51:26.864Z,1029.74
2023-02-09T01:52:26.863Z,1029.78
2023-02-09T01:53:26.870Z,1029.76
2023-02-09T01:54:26.879Z,1029.75
2023-02-09T01:55:26.876Z,1029.73
2023-02-09T01:56:26.879Z,1029.64
2023-02-09T01:57:26.883Z,1029.74
2023-02-09T01:58:26.887Z,1029.69
2023-02-09T01:59:26.890Z,1029.68
2023-02-09T02:00:26.897Z,1029.67
2023-02-09T02:01:26.965Z,1029.59
2023-02-09T02:02:26.933Z,1029.57
2023-02-09T02:03:26.918Z,1029.58
2023-02-09T02:04:26.904Z,1029.56
2023-02-09T02:05:26.911Z,1029.52
2023-02-09T02:06:26.910Z,1029.51
2023-02-09T02:07:26.914Z,1029.47
2023-02-09T02:08:26.919Z,1029.43
2023-02-09T02:09:26.921Z,1029.48
2023-02-09T02:10:26.925Z,1029.42
2023-02-09T02:11:26.921Z,1029.42
2023-02-09T02:12:26.943Z,1029.40
2023-02-09T02:13:26.929Z,1029.35
2023-02-09T02:14:26.933Z,1029.36
2023-02-09T02:15:27.043Z,1029.31
2023-02-09T02:16:26.944Z,1029.33
2023-02-09T02:17:26.945Z,1029.33
2023-02-09T02:18:26.944Z,1029.31
2023-02-09T02:19:26.945Z,1029.37
2023-02-09T02:20:26.959Z,1029.41
2023-02-09T02:21:26.962Z,1029.35
2023-02-09T02:22:26.989Z,1029.33
2023-02-09T02:23:26.957Z,1029.35
2023-02-09T02:24:26.965Z,1029.36
2023-02-09T02:25:26.968Z,1029.30
2023-02-09T02:26:26.971Z,1029.33
2023-02-09T02:27:26.970Z,1029.33
2023-02-09T02:28:27.005Z,1029.34
2023-02-09T02:29:26.977Z,1029.32
2023-02-09T02:30:27.011Z,1029.25
2023-02-09T02:31:27.062Z,1029.25
2023-02-09T02:32:26.985Z,1029.24
2023-02-09T02:33:26.987Z,1029.23
2023-02-09T02:34:26.989Z,1029.26
2023-02-09T02:35:26.994Z,1029.22
2023-02-09T02:36:26.995Z,1029.25
2023-02-09T02:37:27.000Z,1029.21
2023-02-09T02:38:27.001Z,1029.23
2023-02-09T02:39:27.007Z,1029.22
2023-02-09T02:40:27.017Z,1029.12
2023-02-09T02:41:27.010Z,1029.14
2023-02-09T02:42:27.054Z,1029.09
2023-02-09T02:43:27.028Z,1029.11
2023-02-09T02:44:27.025Z,1029.07
2023-02-09T02:45:27.022Z,1029.08
2023-02-09T02:46:27.140Z,1029.12
2023-02-09T02:47:27.029Z,1029.07
2023-02-09T02:48:27.039Z,1029.07
2023-02-09T02:49:27.045Z,1029.08
2023-02-09T02:50:27.117Z,1029.06
2023-02-09T02:51:27.048Z,1029.06
2023-02-09T02:52:27.048Z,1029.02
2023-02-09T02:53:27.051Z,1029.00
2023-02-09T02:54:27.062Z,1028.95
2023-02-09T02:55:27.057Z,1028.99
2023-02-09T02:56:27.063Z,1029.00
2023-02-09T02:57:27.071Z,1028.95
2023-02-09T02:58:27.069Z,1028.95
2023-02-09T02:59:27.070Z,1028.96
2023-02-09T03:00:27.073Z,1028.93
2023-02-09T03:01:27.096Z,1028.93
2023-02-09T03:02:27.086Z,1028.97
2023-02-09T03:03:27.086Z,1028.94
2023-02-09T03:04:27.085Z,1028.91
2023-02-09T03:05:27.145Z,1028.89
2023-02-09T03:06:27.092Z,1028.90
2023-02-09T03:07:27.093Z,1028.89
2023-02-09T03:08:27.097Z,1028.86
2023-02-09T03:09:27.101Z,1028.87
2023-02-09T03:10:27.157Z,1028.87
2023-02-09T03:11:27.109Z,1028.85
2023-02-09T03:12:27.111Z,1028.82
2023-02-09T03:13:27.113Z,1028.84
2023-02-09T03:14:27.115Z,1028.84
2023-02-09T03:15:27.121Z,1028.81
2023-02-09T03:16:27.191Z,1028.83
2023-02-09T03:17:27.132Z,1028.84
2023-02-09T03:18:27.132Z,1028.83
2023-02-09T03:19:27.134Z,1028.81
2023-02-09T03:20:27.134Z,1028.80
2023-02-09T03:21:27.137Z,1028.80
2023-02-09T03:22:27.145Z,1028.79
2023-02-09T03:23:27.147Z,1028.86
2023-02-09T03:24:27.145Z,1028.86
2023-02-09T03:25:27.149Z,1028.84
2023-02-09T03:26:27.150Z,1028.85
2023-02-09T03:27:27.152Z,1028.86
2023-02-09T03:28:27.217Z,1028.79
2023-02-09T03:29:27.162Z,1028.81
2023-02-09T03:30:27.203Z,1028.78
2023-02-09T03:31:27.285Z,1028.79
2023-02-09T03:32:27.170Z,1028.76
2023-02-09T03:33:27.169Z,1028.76
2023-02-09T03:34:27.173Z,1028.72
2023-02-09T03:35:27.191Z,1028.68
2023-02-09T03:36:27.181Z,1028.69
2023-02-09T03:37:27.180Z,1028.68
2023-02-09T03:38:27.183Z,1028.70
2023-02-09T03:39:27.194Z,1028.68
2023-02-09T03:40:27.190Z,1028.60
2023-02-09T03:41:27.194Z,1028.64
2023-02-09T03:42:27.195Z,1028.59
2023-02-09T03:43:27.199Z,1028.53
2023-02-09T03:44:27.202Z,1028.55
2023-02-09T03:45:27.203Z,1028.55
2023-02-09T03:46:27.238Z,1028.62
2023-02-09T03:47:27.209Z,1028.56
2023-02-09T03:48:27.214Z,1028.53
2023-02-09T03:49:27.216Z,1028.53
2023-02-09T03:50:27.218Z,1028.56
2023-02-09T03:51:27.223Z,1028.57
2023-02-09T03:52:27.222Z,1028.61
2023-02-09T03:53:27.227Z,1028.57
2023-02-09T03:54:27.228Z,1028.59
2023-02-09T03:55:27.234Z,1028.60
2023-02-09T03:56:27.233Z,1028.59
2023-02-09T03:57:27.246Z,1028.59
2023-02-09T03:58:27.242Z,1028.55
2023-02-09T03:59:27.247Z,1028.56
2023-02-09T04:00:27.267Z,1028.56
2023-02-09T04:01:27.246Z,1028.57
2023-02-09T04:02:27.297Z,1028.54
2023-02-09T04:03:27.251Z,1028.53
2023-02-09T04:04:27.255Z,1028.51
2023-02-09T04:05:27.262Z,1028.52
2023-02-09T04:06:27.261Z,1028.50
2023-02-09T04:07:27.264Z,1028.45
2023-02-09T04:08:27.268Z,1028.47
2023-02-09T04:09:27.269Z,1028.47
2023-02-09T04:10:27.272Z,1028.48
2023-02-09T04:11:27.297Z,1028.44
2023-02-09T04:12:27.282Z,1028.43
2023-02-09T04:13:27.284Z,1028.48
2023-02-09T04:14:27.284Z,1028.52
2023-02-09T04:15:27.309Z,1028.52
2023-02-09T04:16:27.343Z,1028.50
2023-02-09T04:17:27.298Z,1028.47
2023-02-09T04:18:27.295Z,1028.51
2023-02-09T04:19:27.294Z,1028.46
2023-02-09T04:20:27.301Z,1028.50
2023-02-09T04:21:27.300Z,1028.48
2023-02-09T04:22:27.311Z,1028.50
2023-02-09T04:23:27.306Z,1028.47
2023-02-09T04:24:27.310Z,1028.43
2023-02-09T04:25:27.314Z,1028.41
2023-02-09T04:26:27.315Z,1028.45
2023-02-09T04:27:27.323Z,1028.39
2023-02-09T04:28:27.381Z,1028.45
2023-02-09T04:29:27.327Z,1028.36
2023-02-09T04:30:27.331Z,1028.43
2023-02-09T04:31:27.424Z,1028.42
2023-02-09T04:32:27.335Z,1028.43
2023-02-09T04:33:27.337Z,1028.41
2023-02-09T04:34:27.341Z,1028.43
2023-02-09T04:35:27.344Z,1028.47
2023-02-09T04:36:27.347Z,1028.44
2023-02-09T04:37:27.358Z,1028.45
2023-02-09T04:38:27.352Z,1028.39
2023-02-09T04:39:27.354Z,1028.41
2023-02-09T04:40:27.359Z,1028.38
2023-02-09T04:41:27.368Z,1028.38
2023-02-09T04:42:27.367Z,1028.40
2023-02-09T04:43:27.369Z,1028.41
2023-02-09T04:44:27.369Z,1028.43
2023-02-09T04:45:27.432Z,1028.44
2023-02-09T04:46:27.375Z,1028.43
2023-02-09T04:47:27.377Z,1028.41
2023-02-09T04:48:27.380Z,1028.40
2023-02-09T04:49:27.383Z,1028.39
2023-02-09T04:50:27.395Z,1028.39
2023-02-09T04:51:27.388Z,1028.40
2023-02-09T04:52:27.392Z,1028.41
2023-02-09T04:53:27.395Z,1028.39
2023-02-09T04:54:27.397Z,1028.41
2023-02-09T04:55:27.404Z,1028.39
2023-02-09T04:56:27.410Z,1028.38
2023-02-09T04:57:27.406Z,1028.39
2023-02-09T04:58:27.409Z,1028.39
2023-02-09T04:59:27.411Z,1028.37
2023-02-09T05:00:27.415Z,1028.40
2023-02-09T05:01:27.472Z,1028.39
2023-02-09T05:02:27.422Z,1028.33
2023-02-09T05:03:27.454Z,1028.31
2023-02-09T05:04:27.426Z,1028.32
2023-02-09T05:05:27.427Z,1028.30
2023-02-09T05:06:27.447Z,1028.29
2023-02-09T05:07:27.435Z,1028.25
2023-02-09T05:08:27.446Z,1028.18
2023-02-09T05:09:27.444Z,1028.23
2023-02-09T05:10:27.444Z,1028.22
2023-02-09T05:11:27.446Z,1028.25
2023-02-09T05:12:27.457Z,1028.22
2023-02-09T05:13:27.464Z,1028.27
2023-02-09T05:14:27.465Z,1028.26
2023-02-09T05:15:27.474Z,1028.31
2023-02-09T05:16:27.530Z,1028.27
2023-02-09T05:17:27.471Z,1028.30
2023-02-09T05:18:27.481Z,1028.32
2023-02-09T05:19:27.469Z,1028.31
2023-02-09T05:20:27.484Z,1028.26
2023-02-09T05:21:27.472Z,1028.29
2023-02-09T05:22:27.475Z,1028.25
2023-02-09T05:23:27.478Z,1028.21
2023-02-09T05:24:27.481Z,1028.22
2023-02-09T05:25:27.483Z,1028.26
2023-02-09T05:26:27.486Z,1028.27
2023-02-09T05:27:27.488Z,1028.27
2023-02-09T05:28:27.561Z,1028.28
2023-02-09T05:29:27.494Z,1028.27
2023-02-09T05:30:27.499Z,1028.28
2023-02-09T05:31:27.563Z,1028.28
2023-02-09T05:32:27.509Z,1028.23
2023-02-09T05:33:27.557Z,1028.24
2023-02-09T05:34:27.525Z,1028.20
2023-02-09T05:35:27.522Z,1028.24
2023-02-09T05:36:27.517Z,1028.18
2023-02-09T05:37:27.527Z,1028.21
2023-02-09T05:38:27.524Z,1028.21
2023-02-09T05:39:27.539Z,1028.17
2023-02-09T05:40:27.535Z,1028.21
2023-02-09T05:41:27.561Z,1028.17
2023-02-09T05:42:27.532Z,1028.18
2023-02-09T05:43:27.530Z,1028.16
2023-02-09T05:44:27.535Z,1028.10
2023-02-09T05:45:27.537Z,1028.11
2023-02-09T05:46:27.590Z,1028.17
2023-02-09T05:47:27.542Z,1028.16
2023-02-09T05:48:27.546Z,1028.11
2023-02-09T05:49:27.549Z,1028.13
2023-02-09T05:50:27.554Z,1028.16
2023-02-09T05:51:27.566Z,1028.14
2023-02-09T05:52:27.555Z,1028.15
2023-02-09T05:53:27.557Z,1028.14
2023-02-09T05:54:27.562Z,1028.18
2023-02-09T05:55:27.566Z,1028.19
2023-02-09T05:56:27.567Z,1028.17
2023-02-09T05:57:27.568Z,1028.14
2023-02-09T05:58:27.568Z,1028.19
2023-02-09T05:59:27.572Z,1028.15
2023-02-09T06:00:27.598Z,1028.19
2023-02-09T06:01:27.605Z,1028.15
2023-02-09T06:02:27.652Z,1028.18
2023-02-09T06:03:27.661Z,1028.19
2023-02-09T06:04:27.584Z,1028.20
2023-02-09T06:05:27.587Z,1028.21
2023-02-09T06:06:27.623Z,1028.19
2023-02-09T06:07:27.593Z,1028.24
2023-02-09T06:08:27.609Z,1028.27
2023-02-09T06:09:27.600Z,1028.25
2023-02-09T06:10:27.603Z,1028.27
2023-02-09T06:11:27.602Z,1028.18
2023-02-09T06:12:27.614Z,1028.22
2023-02-09T06:13:27.605Z,1028.26
2023-02-09T06:14:27.614Z,1028.28
2023-02-09T06:15:27.650Z,1028.25
2023-02-09T06:16:27.635Z,1028.23
2023-02-09T06:17:27.620Z,1028.22
2023-02-09T06:18:27.628Z,1028.21
2023-02-09T06:19:27.621Z,1028.17
2023-02-09T06:20:27.623Z,1028.22
2023-02-09T06:21:27.625Z,1028.23
2023-02-09T06:22:27.634Z,1028.21
2023-02-09T06:23:27.643Z,1028.21
2023-02-09T06:24:27.635Z,1028.22
2023-02-09T06:25:27.648Z,1028.27
2023-02-09T06:26:27.682Z,1028.19
2023-02-09T06:27:27.646Z,1028.22
2023-02-09T06:28:27.681Z,1028.24
2023-02-09T06:29:27.655Z,1028.26
2023-02-09T06:30:27.656Z,1028.25
2023-02-09T06:31:27.764Z,1028.28
2023-02-09T06:32:27.659Z,1028.26
2023-02-09T06:33:27.663Z,1028.28
2023-02-09T06:34:27.673Z,1028.29
2023-02-09T06:35:27.678Z,1028.27
2023-02-09T06:36:27.685Z,1028.31
2023-02-09T06:37:27.681Z,1028.26
2023-02-09T06:38:27.682Z,1028.30
2023-02-09T06:39:27.681Z,1028.27
2023-02-09T06:40:27.689Z,1028.27
2023-02-09T06:41:27.688Z,1028.24
2023-02-09T06:42:29.055Z,1028.24
2023-02-09T06:43:27.694Z,1028.27
2023-02-09T06:44:27.695Z,1028.24
2023-02-09T06:45:27.701Z,1028.26
2023-02-09T06:46:27.728Z,1028.28
2023-02-09T06:47:27.706Z,1028.25
2023-02-09T06:48:27.705Z,1028.27
2023-02-09T06:49:27.708Z,1028.28
2023-02-09T06:50:27.713Z,1028.28
2023-02-09T06:51:27.713Z,1028.25
2023-02-09T06:52:27.717Z,1028.25
2023-02-09T06:53:27.728Z,1028.29
2023-02-09T06:54:27.725Z,1028.30
2023-02-09T06:55:27.728Z,1028.28
2023-02-09T06:56:27.728Z,1028.25
2023-02-09T06:57:27.732Z,1028.25
2023-02-09T06:58:27.739Z,1028.30
2023-02-09T06:59:27.736Z,1028.31
2023-02-09T07:00:27.740Z,1028.29
2023-02-09T07:01:27.799Z,1028.33
2023-02-09T07:02:27.775Z,1028.29
2023-02-09T07:03:27.750Z,1028.30
2023-02-09T07:04:27.776Z,1028.29
2023-02-09T07:05:27.764Z,1028.27
2023-02-09T07:06:27.761Z,1028.29
2023-02-09T07:07:27.763Z,1028.33
2023-02-09T07:08:27.767Z,1028.29
2023-02-09T07:09:27.796Z,1028.29
2023-02-09T07:10:27.780Z,1028.35
2023-02-09T07:11:27.769Z,1028.39
2023-02-09T07:12:27.775Z,1028.36
2023-02-09T07:13:27.779Z,1028.37
2023-02-09T07:14:27.784Z,1028.36
2023-02-09T07:15:27.782Z,1028.37
2023-02-09T07:16:27.850Z,1028.39
2023-02-09T07:17:27.796Z,1028.42
2023-02-09T07:18:27.795Z,1028.44
2023-02-09T07:19:27.796Z,1028.42
2023-02-09T07:20:27.800Z,1028.42
2023-02-09T07:21:27.812Z,1028.41
2023-02-09T07:22:27.808Z,1028.40
2023-02-09T07:23:27.810Z,1028.34
2023-02-09T07:24:27.810Z,1028.38
2023-02-09T07:25:27.814Z,1028.33
2023-02-09T07:26:27.826Z,1028.34
2023-02-09T07:27:27.841Z,1028.28
2023-02-09T07:28:27.875Z,1028.27
2023-02-09T07:29:27.834Z,1028.32
2023-02-09T07:30:27.902Z,1028.29
2023-02-09T07:31:27.981Z,1028.33
2023-02-09T07:32:27.846Z,1028.32
2023-02-09T07:33:27.840Z,1028.27
2023-02-09T07:34:27.843Z,1028.30
2023-02-09T07:35:27.845Z,1028.27
2023-02-09T07:36:27.850Z,1028.28
2023-02-09T07:37:27.855Z,1028.27
2023-02-09T07:38:27.854Z,1028.23
2023-02-09T07:39:27.862Z,1028.25
2023-02-09T07:40:27.900Z,1028.22
2023-02-09T07:41:27.878Z,1028.21
2023-02-09T07:42:27.883Z,1028.23
2023-02-09T07:43:27.875Z,1028.22
2023-02-09T07:44:27.873Z,1028.25
2023-02-09T07:45:27.879Z,1028.24
2023-02-09T07:46:27.931Z,1028.30
2023-02-09T07:47:27.885Z,1028.27
2023-02-09T07:48:27.886Z,1028.32
2023-02-09T07:49:27.889Z,1028.25
2023-02-09T07:50:27.954Z,1028.26
2023-02-09T07:51:27.895Z,1028.26
2023-02-09T07:52:27.899Z,1028.27
2023-02-09T07:53:27.908Z,1028.22
2023-02-09T07:54:27.908Z,1028.29
2023-02-09T07:55:27.914Z,1028.28
2023-02-09T07:56:27.926Z,1028.26
2023-02-09T07:57:27.915Z,1028.29
2023-02-09T07:58:27.917Z,1028.27
2023-02-09T07:59:27.930Z,1028.27
2023-02-09T08:00:27.922Z,1028.28
2023-02-09T08:01:27.954Z,1028.32
2023-02-09T08:02:27.936Z,1028.27
2023-02-09T08:03:27.936Z,1028.30
2023-02-09T08:04:27.941Z,1028.32
2023-02-09T08:05:27.979Z,1028.31
2023-02-09T08:06:40.770Z,1028.30
2023-02-09T08:07:27.950Z,1028.28
2023-02-09T08:08:27.974Z,1028.27
2023-02-09T08:09:27.960Z,1028.28
2023-02-09T08:10:27.975Z,1028.22
2023-02-09T08:11:27.970Z,1028.29
2023-02-09T08:12:28.005Z,1028.26
2023-02-09T08:13:27.978Z,1028.22
2023-02-09T08:14:27.992Z,1028.15
2023-02-09T08:15:27.985Z,1028.11
2023-02-09T08:16:28.061Z,1028.16
2023-02-09T08:17:28.054Z,1028.12
2023-02-09T08:18:28.005Z,1028.16
2023-02-09T08:19:28.001Z,1028.14
2023-02-09T08:20:28.028Z,1028.13
2023-02-09T08:21:28.014Z,1028.16
2023-02-09T08:22:28.024Z,1028.18
2023-02-09T08:23:28.030Z,1028.07
2023-02-09T08:24:28.029Z,1028.09
2023-02-09T08:25:28.026Z,1028.10
2023-02-09T08:26:28.030Z,1028.07
2023-02-09T08:27:28.039Z,1028.10
2023-02-09T08:28:41.972Z,1028.08
2023-02-09T08:29:28.050Z,1028.09
2023-02-09T08:30:28.052Z,1028.17
2023-02-09T08:31:28.136Z,1028.11
2023-02-09T08:32:28.055Z,1028.09
2023-02-09T08:33:28.065Z,1028.08
2023-02-09T08:34:28.063Z,1027.97
2023-02-09T08:35:30.273Z,1028.02
2023-02-09T08:36:28.076Z,1027.94
2023-02-09T08:37:28.076Z,1027.95
2023-02-09T08:38:28.082Z,1027.95
2023-02-09T08:39:28.087Z,1027.94
2023-02-09T08:40:28.091Z,1027.97
2023-02-09T08:41:28.094Z,1027.94
2023-02-09T08:42:28.102Z,1027.89
2023-02-09T08:43:28.103Z,1027.91
2023-02-09T08:44:28.110Z,1027.90
2023-02-09T08:45:28.148Z,1027.89
2023-02-09T08:46:28.253Z,1027.88
2023-02-09T08:47:28.126Z,1027.95
2023-02-09T08:48:28.132Z,1027.94
2023-02-09T08:49:28.136Z,1027.96
2023-02-09T08:50:28.138Z,1027.99
2023-02-09T08:51:28.149Z,1027.98
2023-02-09T08:52:28.153Z,1028.02
2023-02-09T08:53:28.155Z,1027.94
2023-02-09T08:54:28.169Z,1027.98
2023-02-09T08:55:28.163Z,1027.99
2023-02-09T08:56:28.168Z,1027.96
2023-02-09T08:57:42.762Z,1027.95
2023-02-09T08:58:28.185Z,1027.94
2023-02-09T08:59:28.191Z,1027.94
2023-02-09T09:00:28.190Z,1027.90
2023-02-09T09:01:28.275Z,1027.94
2023-02-09T09:02:28.199Z,1028.00
2023-02-09T09:03:28.232Z,1027.98
2023-02-09T09:04:28.209Z,1027.97
2023-02-09T09:05:28.765Z,1027.98
2023-02-09T09:06:28.224Z,1028.02
2023-02-09T09:07:28.227Z,1028.00
2023-02-09T09:08:28.245Z,1028.03
2023-02-09T09:09:28.238Z,1028.09
2023-02-09T09:10:28.242Z,1028.10
2023-02-09T09:11:28.250Z,1028.08
2023-02-09T09:12:28.252Z,1028.04
2023-02-09T09:13:28.266Z,1028.06
2023-02-09T09:14:28.264Z,1028.03
2023-02-09T09:15:28.277Z,1028.04
2023-02-09T09:16:28.317Z,1028.05
2023-02-09T09:17:28.284Z,1027.99
2023-02-09T09:18:28.294Z,1028.01
2023-02-09T09:19:28.291Z,1027.94
2023-02-09T09:20:28.311Z,1027.94
2023-02-09T09:21:28.304Z,1027.92
2023-02-09T09:22:28.312Z,1027.91
2023-02-09T09:23:28.314Z,1027.88
2023-02-09T09:24:28.365Z,1027.81
2023-02-09T09:25:28.324Z,1027.88
2023-02-09T09:26:28.340Z,1027.93
2023-02-09T09:27:28.337Z,1027.92
2023-02-09T09:28:28.396Z,1027.97
2023-02-09T09:29:28.353Z,1027.96
2023-02-09T09:30:28.357Z,1027.95
2023-02-09T09:31:28.505Z,1028.00
2023-02-09T09:32:28.490Z,1027.99
2023-02-09T09:33:28.375Z,1027.98
2023-02-09T09:34:28.378Z,1028.00
2023-02-09T09:35:28.390Z,1027.90
2023-02-09T09:36:28.406Z,1027.97
2023-02-09T09:37:28.423Z,1027.88
2023-02-09T09:38:28.403Z,1027.81
2023-02-09T09:39:28.408Z,1027.83
2023-02-09T09:40:28.417Z,1027.86
2023-02-09T09:41:28.429Z,1027.86
2023-02-09T09:42:28.447Z,1027.85
2023-02-09T09:43:28.436Z,1027.84
2023-02-09T09:44:28.475Z,1027.83
2023-02-09T09:45:28.464Z,1027.81
2023-02-09T09:46:28.524Z,1027.82
2023-02-09T09:47:28.461Z,1027.78
2023-02-09T09:48:28.473Z,1027.78
2023-02-09T09:49:28.474Z,1027.77
2023-02-09T09:50:28.481Z,1027.70
2023-02-09T09:51:28.498Z,1027.73
2023-02-09T09:52:28.495Z,1027.69
2023-02-09T09:53:28.502Z,1027.73
2023-02-09T09:54:28.508Z,1027.69
2023-02-09T09:55:28.514Z,1027.72
2023-02-09T09:56:28.519Z,1027.65
2023-02-09T09:57:28.526Z,1027.65
2023-02-09T09:58:28.534Z,1027.66
2023-02-09T09:59:28.543Z,1027.66
2023-02-09T10:00:28.544Z,1027.69
2023-02-09T10:01:28.689Z,1027.71
2023-02-09T10:02:28.563Z,1027.72
2023-02-09T10:03:28.571Z,1027.65
2023-02-09T10:04:28.620Z,1027.64
2023-02-09T10:05:28.581Z,1027.62
2023-02-09T10:06:28.950Z,1027.60
2023-02-09T10:07:28.594Z,1027.69
2023-02-09T10:08:28.603Z,1027.62
2023-02-09T10:09:28.609Z,1027.59
2023-02-09T10:10:28.624Z,1027.53
2023-02-09T10:11:28.622Z,1027.57
2023-02-09T10:12:28.628Z,1027.52
2023-02-09T10:13:28.638Z,1027.58
2023-02-09T10:14:28.643Z,1027.51
2023-02-09T10:15:28.653Z,1027.57
2023-02-09T10:16:28.672Z,1027.52
2023-02-09T10:17:28.669Z,1027.49
2023-02-09T10:18:28.674Z,1027.49
2023-02-09T10:19:28.678Z,1027.52
2023-02-09T10:20:28.687Z,1027.47
2023-02-09T10:21:28.694Z,1027.49
2023-02-09T10:22:28.701Z,1027.39
2023-02-09T10:23:28.725Z,1027.38
2023-02-09T10:24:28.724Z,1027.32
2023-02-09T10:25:28.723Z,1027.40
2023-02-09T10:26:28.746Z,1027.28
2023-02-09T10:27:28.735Z,1027.41
2023-02-09T10:28:28.798Z,1027.36
2023-02-09T10:29:28.749Z,1027.32
2023-02-09T10:30:28.826Z,1027.37
2023-02-09T10:31:28.844Z,1027.37
2023-02-09T10:32:28.773Z,1027.34
2023-02-09T10:33:28.778Z,1027.37
2023-02-09T10:34:28.788Z,1027.41
2023-02-09T10:35:28.791Z,1027.41
2023-02-09T10:36:28.814Z,1027.37
2023-02-09T10:37:28.807Z,1027.33
2023-02-09T10:38:28.815Z,1027.24
2023-02-09T10:39:28.820Z,1027.34
2023-02-09T10:40:28.840Z,1027.23
2023-02-09T10:41:28.837Z,1027.19
2023-02-09T10:42:28.843Z,1027.11
2023-02-09T10:43:28.855Z,1027.12
2023-02-09T10:44:28.909Z,1027.14
2023-02-09T10:45:28.873Z,1027.18
2023-02-09T10:46:28.903Z,1027.22
2023-02-09T10:47:28.879Z,1027.22
2023-02-09T10:48:28.894Z,1027.21
2023-02-09T10:49:28.894Z,1027.19
2023-02-09T10:50:28.903Z,1027.18
2023-02-09T10:51:29.048Z,1027.14
2023-02-09T10:52:28.920Z,1027.14
2023-02-09T10:53:28.958Z,1027.15
2023-02-09T10:54:28.935Z,1027.01
2023-02-09T10:55:28.940Z,1026.94
2023-02-09T10:56:28.947Z,1026.94
2023-02-09T10:57:28.957Z,1026.89
2023-02-09T10:58:28.973Z,1026.80
2023-02-09T10:59:28.972Z,1026.81
2023-02-09T11:00:28.979Z,1026.80
2023-02-09T11:01:29.032Z,1026.70
2023-02-09T11:02:29.000Z,1026.74
2023-02-09T11:03:29.170Z,1026.69
2023-02-09T11:04:29.054Z,1026.66
2023-02-09T11:05:29.026Z,1026.60
2023-02-09T11:06:29.058Z,1026.55
2023-02-09T11:07:30.643Z,1026.53
2023-02-09T11:08:29.047Z,1026.52
2023-02-09T11:09:29.057Z,1026.52
2023-02-09T11:10:29.066Z,1026.51
2023-02-09T11:11:29.077Z,1026.56
2023-02-09T11:12:29.086Z,1026.50
2023-02-09T11:13:30.444Z,1026.50
2023-02-09T11:14:29.100Z,1026.55
2023-02-09T11:15:29.105Z,1026.51
2023-02-09T11:16:29.204Z,1026.52
2023-02-09T11:17:29.121Z,1026.40
2023-02-09T11:18:29.130Z,1026.48
2023-02-09T11:19:29.138Z,1026.47
2023-02-09T11:20:29.144Z,1026.42
2023-02-09T11:21:29.155Z,1026.42
2023-02-09T11:22:29.194Z,1026.44
2023-02-09T11:23:29.170Z,1026.36
2023-02-09T11:24:29.178Z,1026.37
2023-02-09T11:25:29.195Z,1026.38
2023-02-09T11:26:29.212Z,1026.34
2023-02-09T11:27:29.207Z,1026.40
2023-02-09T11:28:29.361Z,1026.42
2023-02-09T11:29:29.223Z,1026.46
2023-02-09T11:30:29.230Z,1026.42
2023-02-09T11:31:29.326Z,1026.45
2023-02-09T11:32:29.246Z,1026.45
2023-02-09T11:33:29.251Z,1026.41
2023-02-09T11:34:29.271Z,1026.40
2023-02-09T11:35:29.280Z,1026.39
2023-02-09T11:36:29.284Z,1026.38
2023-02-09T11:37:29.287Z,1026.40
2023-02-09T11:38:29.293Z,1026.42
2023-02-09T11:39:29.301Z,1026.43
2023-02-09T11:40:29.341Z,1026.44
2023-02-09T11:41:29.320Z,1026.45
2023-02-09T11:42:29.328Z,1026.42
2023-02-09T11:43:29.340Z,1026.46
2023-02-09T11:44:29.343Z,1026.44
2023-02-09T11:45:29.356Z,1026.42
2023-02-09T11:46:29.391Z,1026.39
2023-02-09T11:47:29.369Z,1026.40
2023-02-09T11:48:29.388Z,1026.39
2023-02-09T11:49:29.386Z,1026.36
2023-02-09T11:50:29.394Z,1026.46
2023-02-09T11:51:31.618Z,1026.47
2023-02-09T11:52:29.407Z,1026.46
2023-02-09T11:53:29.416Z,1026.37
2023-02-09T11:54:29.430Z,1026.34
2023-02-09T11:55:29.433Z,1026.38
2023-02-09T11:56:29.444Z,1026.35
2023-02-09T11:57:29.451Z,1026.37
2023-02-09T11:58:29.461Z,1026.36
2023-02-09T11:59:29.469Z,1026.38
2023-02-09T12:00:29.474Z,1026.40
2023-02-09T12:01:29.485Z,1026.34
2023-02-09T12:02:29.503Z,1026.34
2023-02-09T12:03:29.498Z,1026.29
2023-02-09T12:04:29.508Z,1026.32
2023-02-09T12:05:29.517Z,1026.23